FMEP/ZSE METAR and TAF weather

Enter ICAO airport designator
Station Type Date Time Source
FMEP METAR 2019/12/11 15:00 UTC NOAA

FMEP 111500Z AUTO 24003KT 9999 SCT060/// BKN092/// 28/24 Q1012 NOSIG


Station Type Date Time Source
FMEP Decoded METAR 2019/12/11 15:00 UTC NOAA

Saint-Pierre, Reunion (FMEP) 21-20S 055-29E 53M
Dec 11, 2019 - 10:00 AM EST / 2019.12.11 1500 UTC
Wind: from the WSW (240 degrees) at 3 MPH (3 KT):0
Visibility: greater than 7 mile(s):0
Sky conditions: mostly cloudy
Temperature: 82 F (28 C)
Dew Point: 75 F (24 C)
Relative Humidity: 78%
Pressure (altimeter): 29.88 in. Hg (1012 hPa)
ob: FMEP 111500Z AUTO 24003KT 9999 SCT060/// BKN092/// 28/24 Q1012 NOSIG
cycle: 15

Station Type Date Time Source
FMEP TAF 2019/12/10 12:00 UTC NOAA

TAF FMEP 101100Z 1012/1021 23008KT 9999 SCT030 BKN060 PROB40
TEMPO 1014/1016 4000 SHRA
BECMG 1016/1018 03005KT

Example: see airport list